Meteorológiai információk azoknak akik tudják olvasni.

METAR = LHBP 020000Z 20006KT 9999 SCT038 07/02 Q1001 NOSIG

9 órás TAF = TAF TAF LHBP 242330Z 2423/2424 30008KT CAVOK BECMG 2506/2509 24010KT OVC030 TEMPO 2509/2515 24015G25KT 8000 -RA BKN013 OVC025 BECMG 2515/2518 30008KT CAVOK

24 órás TAF = TAF TAF LHBP 011715Z 0118/0218 18008KT CAVOK BECMG 0121/0123 BKN025 TEMPO 0123/0206 VRB03KT BKN008 BECMG 0206/0209 VRB03KT -RA BKN005 OVC015 TEMPO 0210/0213 3000 RA BKN003 OVC010

ÁLLOMÁS.................... LHBP
ÉSZLELÉS................... Thu Dec 2, 01:00 CET
MOST....................... Thu Dec 2, 01:14 CET
IDŐ........................ 14 perccel ezelőtt
SZÉL....................... DDNY irányból 6 csomó
LÁTÁSTÁVOLSÁG.............. 6 mérföld
FELHŐZET................... elszórt
HŐMÉRSÉKLET................ 45°F (7°C)
HŐÉRZET.................... 42°F (6°C)
HARMATPONT................. 36°F (2°C)
PÁRATARTALOM............... 71%
LÉGNYOMÁS.................. 1001 hPa (29.56 in Hg)

További információ LHBP állomásról

Meteor információ kérése:        állomásról.    

 

www.tothgeza.hu

 

English version
Copyright © 2003-2021 Tóth Géza Minden jog fenntartva.